createdAt,value
2023-09-28T00:01:37.002Z,3.50
2023-09-28T00:04:08.140Z,3.50
2023-09-28T00:06:36.730Z,2.85
2023-09-28T00:09:05.024Z,2.83
2023-09-28T00:11:31.702Z,3.35
2023-09-28T00:13:59.334Z,3.20
2023-09-28T00:16:26.060Z,3.15
2023-09-28T00:18:53.620Z,3.08
2023-09-28T00:21:20.479Z,3.05
2023-09-28T00:23:50.247Z,3.17
2023-09-28T00:26:18.234Z,3.15
2023-09-28T00:28:45.034Z,2.90
2023-09-28T00:31:12.741Z,3.25
2023-09-28T00:33:40.305Z,3.17
2023-09-28T00:36:07.013Z,3.10
2023-09-28T00:38:34.578Z,3.20
2023-09-28T00:41:02.555Z,3.08
2023-09-28T00:43:31.069Z,3.20
2023-09-28T00:46:00.150Z,3.33
2023-09-28T00:48:29.026Z,3.13
2023-09-28T00:50:55.708Z,3.13
2023-09-28T00:53:24.041Z,2.90
2023-09-28T00:55:51.943Z,3.05
2023-09-28T00:58:24.554Z,3.00
2023-09-28T01:00:51.599Z,3.33
2023-09-28T01:03:19.313Z,3.00
2023-09-28T01:05:45.927Z,3.03
2023-09-28T01:08:16.758Z,3.30
2023-09-28T01:10:43.872Z,3.17
2023-09-28T01:13:13.373Z,3.08
2023-09-28T01:15:42.023Z,2.92
2023-09-28T01:18:11.608Z,2.92
2023-09-28T01:20:38.853Z,2.85
2023-09-28T01:23:08.254Z,2.70
2023-09-28T01:25:35.360Z,2.88
2023-09-28T01:28:04.689Z,3.20
2023-09-28T01:30:31.644Z,3.20
2023-09-28T01:32:59.408Z,2.78
2023-09-28T01:35:27.222Z,2.92
2023-09-28T01:38:02.334Z,3.00
2023-09-28T01:40:30.745Z,3.13
2023-09-28T01:42:58.666Z,3.30
2023-09-28T01:45:26.282Z,2.95
2023-09-28T01:47:53.971Z,2.95
2023-09-28T01:50:20.747Z,2.80
2023-09-28T01:52:48.435Z,3.22
2023-09-28T01:55:15.509Z,3.20
2023-09-28T01:57:44.496Z,3.20
2023-09-28T02:00:16.714Z,2.83
2023-09-28T02:02:44.581Z,2.75
2023-09-28T02:05:12.654Z,2.90
2023-09-28T02:07:40.756Z,3.03
2023-09-28T02:10:08.581Z,3.28
2023-09-28T02:12:36.411Z,3.00
2023-09-28T02:15:05.561Z,2.58
2023-09-28T02:17:33.301Z,3.00
2023-09-28T02:19:59.963Z,3.22
2023-09-28T02:22:27.682Z,2.78
2023-09-28T02:24:54.537Z,2.72
2023-09-28T02:27:23.194Z,2.70
2023-09-28T02:29:49.840Z,3.15
2023-09-28T02:32:18.922Z,3.00
2023-09-28T02:34:45.746Z,2.70
2023-09-28T02:37:13.362Z,2.92
2023-09-28T02:39:39.979Z,2.90
2023-09-28T02:42:08.600Z,3.00
2023-09-28T02:44:35.604Z,3.28
2023-09-28T02:47:06.843Z,3.05
2023-09-28T02:49:35.180Z,2.67
2023-09-28T02:52:03.313Z,2.88
2023-09-28T02:54:30.835Z,2.75
2023-09-28T02:56:58.910Z,2.97
2023-09-28T02:59:28.784Z,3.40
2023-09-28T03:01:56.206Z,2.90
2023-09-28T03:04:23.857Z,2.65
2023-09-28T03:06:53.832Z,2.95
2023-09-28T03:09:21.655Z,2.70
2023-09-28T03:11:48.238Z,3.00
2023-09-28T03:14:15.835Z,2.80
2023-09-28T03:16:43.843Z,3.13
2023-09-28T03:19:11.773Z,2.90
2023-09-28T03:21:38.396Z,2.90
2023-09-28T03:24:09.378Z,3.13
2023-09-28T03:26:36.100Z,2.90
2023-09-28T03:29:04.494Z,2.70
2023-09-28T03:31:35.274Z,3.22
2023-09-28T03:34:03.416Z,2.72
2023-09-28T03:36:31.639Z,3.17
2023-09-28T03:38:59.418Z,3.00
2023-09-28T03:41:29.208Z,2.58
2023-09-28T03:43:57.054Z,2.55
2023-09-28T03:46:25.324Z,2.67
2023-09-28T03:48:52.853Z,2.95
2023-09-28T03:51:20.438Z,2.92
2023-09-28T03:53:48.176Z,3.08
2023-09-28T03:56:15.807Z,3.13
2023-09-28T03:58:45.267Z,2.78
2023-09-28T04:01:13.041Z,2.70
2023-09-28T04:03:42.203Z,2.88
2023-09-28T04:06:10.687Z,3.10
2023-09-28T04:08:38.978Z,2.60
2023-09-28T04:11:06.722Z,3.10
2023-09-28T04:13:34.288Z,2.83
2023-09-28T04:16:03.375Z,4.28
2023-09-28T04:18:31.031Z,3.13
2023-09-28T04:20:58.607Z,3.10
2023-09-28T04:23:26.367Z,3.20
2023-09-28T04:25:54.310Z,3.22
2023-09-28T04:28:22.142Z,3.03
2023-09-28T04:30:49.719Z,2.90
2023-09-28T04:33:18.934Z,2.90
2023-09-28T04:35:51.154Z,2.97
2023-09-28T04:38:18.831Z,3.20
2023-09-28T04:40:46.556Z,2.95
2023-09-28T04:43:14.243Z,3.10
2023-09-28T04:45:41.900Z,3.20
2023-09-28T04:48:09.747Z,2.83
2023-09-28T04:50:38.910Z,3.00
2023-09-28T04:53:06.500Z,3.15
2023-09-28T04:55:34.855Z,2.90
2023-09-28T04:58:04.579Z,3.22
2023-09-28T05:00:33.894Z,3.28
2023-09-28T05:03:04.995Z,2.80
2023-09-28T05:05:34.187Z,2.92
2023-09-28T05:08:03.917Z,3.00
2023-09-28T05:10:31.694Z,2.65
2023-09-28T05:12:59.864Z,3.00
2023-09-28T05:15:27.506Z,3.40
2023-09-28T05:17:55.633Z,3.05
2023-09-28T05:20:25.088Z,3.20
2023-09-28T05:22:57.021Z,3.17
2023-09-28T05:25:29.714Z,2.92
2023-09-28T05:27:58.671Z,3.20
2023-09-28T05:30:26.531Z,2.95
2023-09-28T05:32:54.438Z,7.53
2023-09-28T05:35:22.666Z,2.97
2023-09-28T05:37:50.437Z,2.92
2023-09-28T05:40:18.346Z,2.95
2023-09-28T05:42:47.254Z,3.00
2023-09-28T05:45:14.946Z,3.15
2023-09-28T05:47:42.671Z,3.45
2023-09-28T05:50:12.075Z,3.10
2023-09-28T05:52:39.691Z,3.00
2023-09-28T05:55:08.900Z,3.10
2023-09-28T05:57:36.483Z,3.47
2023-09-28T06:00:10.111Z,3.30
2023-09-28T06:02:38.019Z,3.90
2023-09-28T06:05:06.685Z,3.30
2023-09-28T06:07:34.351Z,3.30
2023-09-28T06:10:01.865Z,3.13
2023-09-28T06:12:29.439Z,3.63
2023-09-28T06:14:57.190Z,3.50
2023-09-28T06:17:26.150Z,2.95
2023-09-28T06:19:57.798Z,3.47
2023-09-28T06:22:26.307Z,3.55
2023-09-28T06:24:55.847Z,3.80
2023-09-28T06:27:23.401Z,3.03
2023-09-28T06:29:54.331Z,3.55
2023-09-28T06:32:23.364Z,3.58
2023-09-28T06:34:52.454Z,3.22
2023-09-28T06:37:20.197Z,3.33
2023-09-28T06:39:48.277Z,3.22
2023-09-28T06:42:29.282Z,3.35
2023-09-28T06:45:03.641Z,3.47
2023-09-28T06:47:50.048Z,3.90
2023-09-28T06:50:21.360Z,3.63
2023-09-28T06:52:49.205Z,3.38
2023-09-28T06:55:17.012Z,3.25
2023-09-28T06:57:45.484Z,3.42
2023-09-28T07:00:17.881Z,4.75
2023-09-28T07:02:48.191Z,3.92
2023-09-28T07:05:16.232Z,3.83
2023-09-28T07:07:46.241Z,3.30
2023-09-28T07:10:14.505Z,3.58
2023-09-28T07:12:42.365Z,3.80
2023-09-28T07:15:10.670Z,3.70
2023-09-28T07:17:38.620Z,3.45
2023-09-28T07:20:09.030Z,3.45
2023-09-28T07:22:36.961Z,3.60
2023-09-28T07:25:07.421Z,3.90
2023-09-28T07:27:35.042Z,3.75
2023-09-28T07:30:06.449Z,3.95
2023-09-28T07:32:34.460Z,3.58
2023-09-28T07:35:03.735Z,3.80
2023-09-28T07:37:31.495Z,4.05
2023-09-28T07:39:59.080Z,4.20
2023-09-28T07:42:28.569Z,4.13
2023-09-28T07:44:57.061Z,3.88
2023-09-28T07:47:25.107Z,4.50
2023-09-28T07:49:53.716Z,4.15
2023-09-28T07:52:21.340Z,4.28
2023-09-28T07:54:48.963Z,3.65
2023-09-28T07:57:16.778Z,4.28
2023-09-28T07:59:45.947Z,4.50
2023-09-28T08:02:13.587Z,4.07
2023-09-28T08:04:41.212Z,3.85
2023-09-28T08:07:08.940Z,4.10
2023-09-28T08:09:36.750Z,4.03
2023-09-28T08:12:04.433Z,4.28
2023-09-28T08:14:32.484Z,4.18
2023-09-28T08:17:01.750Z,4.38
2023-09-28T08:19:30.386Z,4.50
2023-09-28T08:21:58.214Z,4.22
2023-09-28T08:24:25.862Z,4.63
2023-09-28T08:26:53.791Z,4.05
2023-09-28T08:29:21.380Z,3.92
2023-09-28T08:31:49.033Z,3.90
2023-09-28T08:34:32.780Z,3.97
2023-09-28T08:37:06.256Z,3.88
2023-09-28T08:39:33.956Z,3.90
2023-09-28T08:42:04.414Z,5.03
2023-09-28T08:44:33.646Z,3.50
2023-09-28T08:47:01.921Z,4.00
2023-09-28T08:49:36.269Z,3.35
2023-09-28T08:52:05.199Z,3.20
2023-09-28T08:54:33.587Z,3.97
2023-09-28T08:57:01.409Z,3.50
2023-09-28T08:59:31.516Z,3.50
2023-09-28T09:02:01.383Z,3.83
2023-09-28T09:04:30.544Z,3.90
2023-09-28T09:07:02.292Z,4.05
2023-09-28T09:09:31.777Z,3.20
2023-09-28T09:12:00.379Z,4.13
2023-09-28T09:14:30.288Z,3.70
2023-09-28T09:16:58.072Z,3.83
2023-09-28T09:19:31.455Z,4.18
2023-09-28T09:22:00.850Z,3.78
2023-09-28T09:24:28.563Z,3.92
2023-09-28T09:26:57.507Z,3.60
2023-09-28T09:29:25.233Z,3.55
2023-09-28T09:31:53.221Z,4.00
2023-09-28T09:34:22.584Z,4.15
2023-09-28T09:36:57.351Z,4.13
2023-09-28T09:41:55.711Z,4.10
2023-09-28T09:44:25.635Z,4.03
2023-09-28T09:46:54.967Z,3.60
2023-09-28T09:49:25.326Z,3.90
2023-09-28T09:51:53.772Z,3.95
2023-09-28T09:54:22.671Z,4.13
2023-09-28T09:56:52.932Z,3.80
2023-09-28T09:59:22.434Z,4.05
2023-09-28T10:01:52.021Z,4.53
2023-09-28T10:04:22.164Z,3.92
2023-09-28T10:06:53.433Z,5.30
2023-09-28T10:09:22.976Z,4.53
2023-09-28T10:11:53.092Z,4.55
2023-09-28T10:14:22.470Z,4.20
2023-09-28T10:16:54.184Z,4.70
2023-09-28T10:19:25.809Z,3.83
2023-09-28T10:21:54.392Z,4.22
2023-09-28T10:24:30.682Z,4.25
2023-09-28T10:27:07.984Z,4.97
2023-09-28T10:29:35.836Z,4.40
2023-09-28T10:32:04.308Z,4.97
2023-09-28T10:34:32.885Z,4.82
2023-09-28T10:37:24.898Z,4.60
2023-09-28T10:39:55.937Z,4.45
2023-09-28T10:42:25.523Z,4.45
2023-09-28T10:44:55.659Z,4.43
2023-09-28T10:47:24.460Z,4.55
2023-09-28T10:50:00.337Z,4.18
2023-09-28T10:52:30.480Z,4.20
2023-09-28T10:54:58.480Z,4.30
2023-09-28T10:57:34.297Z,4.57
2023-09-28T11:00:02.826Z,4.70
2023-09-28T11:02:33.320Z,4.18
2023-09-28T11:05:01.583Z,4.53
2023-09-28T11:07:29.770Z,4.65
2023-09-28T11:09:58.837Z,4.13
2023-09-28T11:12:29.786Z,4.30
2023-09-28T11:14:59.816Z,4.35
2023-09-28T11:17:28.379Z,3.88
2023-09-28T11:19:57.275Z,3.97
2023-09-28T11:22:24.938Z,3.70
2023-09-28T11:24:52.683Z,4.18
2023-09-28T11:27:20.589Z,4.30
2023-09-28T11:29:48.301Z,4.05
2023-09-28T11:32:18.574Z,4.07
2023-09-28T11:34:48.016Z,4.18
2023-09-28T11:37:17.810Z,4.00
2023-09-28T11:39:45.671Z,4.63
2023-09-28T11:42:14.539Z,4.20
2023-09-28T11:44:44.033Z,4.10
2023-09-28T11:47:11.891Z,3.80
2023-09-28T11:49:44.526Z,4.15
2023-09-28T11:52:14.519Z,3.63
2023-09-28T11:54:42.212Z,3.80
2023-09-28T11:57:10.580Z,4.22
2023-09-28T11:59:38.591Z,4.00
2023-09-28T12:02:06.857Z,3.80
2023-09-28T12:04:36.614Z,3.72
2023-09-28T12:07:07.349Z,3.70
2023-09-28T12:09:35.534Z,4.40
2023-09-28T12:12:03.079Z,3.88
2023-09-28T12:14:31.023Z,4.22
2023-09-28T12:16:59.608Z,3.83
2023-09-28T12:19:27.585Z,4.10
2023-09-28T12:21:55.288Z,4.15
2023-09-28T12:24:24.274Z,4.07
2023-09-28T12:26:51.895Z,4.57
2023-09-28T12:29:19.907Z,3.70
2023-09-28T12:31:48.922Z,3.80
2023-09-28T12:34:16.739Z,4.13
2023-09-28T12:36:44.326Z,4.00
2023-09-28T12:39:12.341Z,4.00
2023-09-28T12:41:41.675Z,4.60
2023-09-28T12:44:14.346Z,4.38
2023-09-28T12:46:42.230Z,4.70
2023-09-28T12:49:09.863Z,4.38
2023-09-28T12:51:37.490Z,4.50
2023-09-28T12:54:07.226Z,4.05
2023-09-28T12:56:35.251Z,4.60
2023-09-28T12:59:04.517Z,4.50
2023-09-28T13:01:32.343Z,4.82
2023-09-28T13:04:01.814Z,5.50
2023-09-28T13:06:30.217Z,5.20
2023-09-28T13:08:59.151Z,5.43
2023-09-28T13:11:27.625Z,5.30
2023-09-28T13:13:56.059Z,4.97
2023-09-28T13:16:26.443Z,5.35
2023-09-28T13:18:56.601Z,4.95
2023-09-28T13:21:24.347Z,4.78
2023-09-28T13:24:05.123Z,5.15
2023-09-28T13:26:40.269Z,5.43
2023-09-28T13:29:08.072Z,4.60
2023-09-28T13:31:38.105Z,4.82
2023-09-28T13:34:06.374Z,4.55
2023-09-28T13:36:35.198Z,4.47
2023-09-28T13:39:05.310Z,4.72
2023-09-28T13:41:33.203Z,4.47
2023-09-28T13:44:00.901Z,4.30
2023-09-28T13:46:29.771Z,4.10
2023-09-28T13:48:59.757Z,4.15
2023-09-28T13:51:29.040Z,4.65
2023-09-28T13:53:56.695Z,4.45
2023-09-28T13:56:24.526Z,4.43
2023-09-28T13:58:52.394Z,4.30
2023-09-28T14:01:21.582Z,3.80
2023-09-28T14:03:49.796Z,4.15
2023-09-28T14:06:19.242Z,3.50
2023-09-28T14:08:47.665Z,3.83
2023-09-28T14:11:22.164Z,3.63
2023-09-28T14:13:49.963Z,3.40
2023-09-28T14:16:17.588Z,3.50
2023-09-28T14:18:45.662Z,3.70
2023-09-28T14:21:13.309Z,3.10
2023-09-28T14:23:42.267Z,3.55
2023-09-28T14:26:10.658Z,3.60
2023-09-28T14:28:38.496Z,3.42
2023-09-28T14:31:06.520Z,3.90
2023-09-28T14:33:34.203Z,3.45
2023-09-28T14:36:02.779Z,3.72
2023-09-28T14:38:31.057Z,3.50
2023-09-28T14:41:00.198Z,3.50
2023-09-28T14:43:27.852Z,4.07
2023-09-28T14:45:55.448Z,3.60
2023-09-28T14:48:23.340Z,3.67
2023-09-28T14:50:52.053Z,5.25
2023-09-28T14:53:21.191Z,3.40
2023-09-28T14:55:50.054Z,3.85
2023-09-28T14:58:19.001Z,3.58
2023-09-28T15:00:46.795Z,3.72
2023-09-28T15:03:14.510Z,3.92
2023-09-28T15:05:42.446Z,3.53
2023-09-28T15:08:10.109Z,3.17
2023-09-28T15:10:38.159Z,3.08
2023-09-28T15:13:05.917Z,3.50
2023-09-28T15:15:35.300Z,3.67
2023-09-28T15:18:02.980Z,3.10
2023-09-28T15:20:30.651Z,3.92
2023-09-28T15:22:58.231Z,5.10
2023-09-28T15:25:25.766Z,3.47
2023-09-28T15:27:53.298Z,3.50
2023-09-28T15:30:21.214Z,3.90
2023-09-28T15:32:50.314Z,3.28
2023-09-28T15:35:18.248Z,3.65
2023-09-28T15:37:46.334Z,3.72
2023-09-28T15:40:15.649Z,3.28
2023-09-28T15:42:43.720Z,3.65
2023-09-28T15:45:14.099Z,3.80
2023-09-28T15:47:42.529Z,3.67
2023-09-28T15:50:12.852Z,3.40
2023-09-28T15:52:40.485Z,3.42
2023-09-28T15:55:09.299Z,3.50
2023-09-28T15:57:37.035Z,3.60
2023-09-28T16:00:05.352Z,3.72
2023-09-28T16:02:32.914Z,4.00
2023-09-28T16:05:00.868Z,4.55
2023-09-28T16:07:29.975Z,4.25
2023-09-28T16:09:57.684Z,4.45
2023-09-28T16:12:25.917Z,4.20
2023-09-28T16:14:53.809Z,4.20
2023-09-28T16:17:22.385Z,3.92
2023-09-28T16:19:50.139Z,4.57
2023-09-28T16:22:17.781Z,3.83
2023-09-28T16:24:46.667Z,4.50
2023-09-28T16:27:16.506Z,3.90
2023-09-28T16:29:44.360Z,4.00
2023-09-28T16:32:12.195Z,4.10
2023-09-28T16:34:40.033Z,3.80
2023-09-28T16:37:07.620Z,4.43
2023-09-28T16:39:35.216Z,3.90
2023-09-28T16:42:04.356Z,3.53
2023-09-28T16:44:31.954Z,3.47
2023-09-28T16:46:59.638Z,3.90
2023-09-28T16:49:27.244Z,4.13
2023-09-28T16:51:54.876Z,4.15
2023-09-28T16:54:22.417Z,4.18
2023-09-28T16:56:50.007Z,4.10
2023-09-28T16:59:19.056Z,3.83
2023-09-28T17:01:46.676Z,4.30
2023-09-28T17:04:14.408Z,4.03
2023-09-28T17:06:43.434Z,4.30
2023-09-28T17:09:11.564Z,4.03
2023-09-28T17:11:39.189Z,3.97
2023-09-28T17:14:06.904Z,4.22
2023-09-28T17:16:35.981Z,4.00
2023-09-28T17:19:03.744Z,4.25
2023-09-28T17:21:31.449Z,3.78
2023-09-28T17:23:59.236Z,4.30
2023-09-28T17:26:26.844Z,4.13
2023-09-28T17:28:55.469Z,4.40
2023-09-28T17:31:23.331Z,3.75
2023-09-28T17:33:52.265Z,4.50
2023-09-28T17:36:22.667Z,4.20
2023-09-28T17:38:50.930Z,4.20
2023-09-28T17:41:18.512Z,4.70
2023-09-28T17:43:46.874Z,4.47
2023-09-28T17:46:14.470Z,6.25
2023-09-28T17:48:44.195Z,6.07
2023-09-28T17:51:13.206Z,4.57
2023-09-28T17:53:40.882Z,5.68
2023-09-28T17:56:08.479Z,4.70
2023-09-28T17:58:36.006Z,4.80
2023-09-28T18:01:03.720Z,4.05
2023-09-28T18:03:32.347Z,4.82
2023-09-28T18:06:00.372Z,4.40
2023-09-28T18:08:29.365Z,4.88
2023-09-28T18:10:57.632Z,4.70
2023-09-28T18:13:25.252Z,4.20
2023-09-28T18:15:52.967Z,4.03
2023-09-28T18:18:20.532Z,4.40
2023-09-28T18:20:48.196Z,4.40
2023-09-28T18:23:16.204Z,4.30
2023-09-28T18:25:47.578Z,4.25
2023-09-28T18:28:15.364Z,4.10
2023-09-28T18:30:43.211Z,4.28
2023-09-28T18:33:10.876Z,4.65
2023-09-28T18:35:38.715Z,4.05
2023-09-28T18:38:06.317Z,4.55
2023-09-28T18:40:34.924Z,5.05
2023-09-28T18:43:04.419Z,4.32
2023-09-28T18:45:32.058Z,4.70
2023-09-28T18:47:59.764Z,6.32
2023-09-28T18:50:27.590Z,5.50
2023-09-28T18:52:55.184Z,4.30
2023-09-28T18:55:23.550Z,4.68
2023-09-28T18:57:51.119Z,4.65
2023-09-28T19:00:20.170Z,5.68
2023-09-28T19:02:47.834Z,4.55
2023-09-28T19:05:15.762Z,4.55
2023-09-28T19:07:43.409Z,4.88
2023-09-28T19:10:11.515Z,4.88
2023-09-28T19:12:39.432Z,4.80
2023-09-28T19:15:09.634Z,4.75
2023-09-28T19:17:38.845Z,4.70
2023-09-28T19:20:07.721Z,4.63
2023-09-28T19:22:35.334Z,5.28
2023-09-28T19:25:03.168Z,4.30
2023-09-28T19:27:38.565Z,5.13
2023-09-28T19:30:07.890Z,4.80
2023-09-28T19:32:35.650Z,5.28
2023-09-28T19:35:05.318Z,5.10
2023-09-28T19:37:32.938Z,5.25
2023-09-28T19:40:01.842Z,5.43
2023-09-28T19:42:29.448Z,5.20
2023-09-28T19:44:57.013Z,4.80
2023-09-28T19:47:24.630Z,4.72
2023-09-28T19:49:52.238Z,4.88
2023-09-28T19:52:21.981Z,5.40
2023-09-28T19:54:49.587Z,4.93
2023-09-28T19:57:17.154Z,5.28
2023-09-28T19:59:44.847Z,5.13
2023-09-28T20:02:12.614Z,5.28
2023-09-28T20:04:40.321Z,5.05
2023-09-28T20:07:07.927Z,5.30
2023-09-28T20:09:36.835Z,5.65
2023-09-28T20:12:04.631Z,5.10
2023-09-28T20:14:32.240Z,5.25
2023-09-28T20:16:59.834Z,5.25
2023-09-28T20:19:27.405Z,5.90
2023-09-28T20:21:54.995Z,4.85
2023-09-28T20:24:22.580Z,6.00
2023-09-28T20:26:51.530Z,5.60
2023-09-28T20:29:19.186Z,6.00
2023-09-28T20:31:46.929Z,5.82
2023-09-28T20:34:14.553Z,5.38
2023-09-28T20:36:42.108Z,4.88
2023-09-28T20:39:09.854Z,5.20
2023-09-28T20:41:38.272Z,5.53
2023-09-28T20:44:07.390Z,5.25
2023-09-28T20:46:35.472Z,5.57
2023-09-28T20:49:04.590Z,6.07
2023-09-28T20:51:32.367Z,5.70
2023-09-28T20:53:59.986Z,5.45
2023-09-28T20:56:27.570Z,5.15
2023-09-28T20:58:55.130Z,6.88
2023-09-28T21:01:24.117Z,5.50
2023-09-28T21:03:51.678Z,5.47
2023-09-28T21:06:19.506Z,6.18
2023-09-28T21:08:48.079Z,6.60
2023-09-28T21:11:20.445Z,5.93
2023-09-28T21:13:48.116Z,6.15
2023-09-28T21:16:16.416Z,6.55
2023-09-28T21:18:45.432Z,6.10
2023-09-28T21:21:13.051Z,5.45
2023-09-28T21:23:40.653Z,6.00
2023-09-28T21:26:08.322Z,5.47
2023-09-28T21:28:39.908Z,5.68
2023-09-28T21:31:08.468Z,5.50
2023-09-28T21:33:36.282Z,5.57
2023-09-28T21:36:06.292Z,5.18
2023-09-28T21:38:34.053Z,5.22
2023-09-28T21:41:01.633Z,5.53
2023-09-28T21:43:29.188Z,5.20
2023-09-28T21:45:56.711Z,5.80
2023-09-28T21:48:24.462Z,5.07
2023-09-28T21:50:52.120Z,5.63
2023-09-28T21:53:21.028Z,5.57
2023-09-28T21:55:48.530Z,4.93
2023-09-28T21:58:16.065Z,6.07
2023-09-28T22:00:43.644Z,5.53
2023-09-28T22:03:11.447Z,6.07
2023-09-28T22:05:39.505Z,5.57
2023-09-28T22:08:08.010Z,5.97
2023-09-28T22:10:37.255Z,5.78
2023-09-28T22:13:04.949Z,6.15
2023-09-28T22:15:32.624Z,5.80
2023-09-28T22:18:00.474Z,5.32
2023-09-28T22:20:28.327Z,5.50
2023-09-28T22:22:56.620Z,5.93
2023-09-28T22:25:24.463Z,5.43
2023-09-28T22:27:53.819Z,5.10
2023-09-28T22:30:21.464Z,5.35
2023-09-28T22:32:49.084Z,5.20
2023-09-28T22:35:17.078Z,4.97
2023-09-28T22:37:45.005Z,4.97
2023-09-28T22:40:26.933Z,5.20
2023-09-28T22:42:58.325Z,5.45
2023-09-28T22:45:26.385Z,4.80
2023-09-28T22:47:54.157Z,5.50
2023-09-28T22:50:21.931Z,4.95
2023-09-28T22:52:49.499Z,5.38
2023-09-28T22:55:17.176Z,4.60
2023-09-28T22:57:44.903Z,4.82
2023-09-28T23:00:14.711Z,4.78
2023-09-28T23:02:42.974Z,4.95
2023-09-28T23:05:12.464Z,4.55
2023-09-28T23:07:41.949Z,4.40
2023-09-28T23:10:12.163Z,4.60
2023-09-28T23:12:40.036Z,4.00
2023-09-28T23:15:08.646Z,4.38
2023-09-28T23:17:37.628Z,4.47
2023-09-28T23:20:10.870Z,4.07
2023-09-28T23:22:42.599Z,3.92
2023-09-28T23:25:13.194Z,4.07
2023-09-28T23:27:45.026Z,4.90
2023-09-28T23:30:18.517Z,4.30
2023-09-28T23:32:48.649Z,3.90
2023-09-28T23:35:19.735Z,3.88
2023-09-28T23:37:49.423Z,3.85
2023-09-28T23:40:21.666Z,3.70
2023-09-28T23:42:49.837Z,3.63
2023-09-28T23:45:17.852Z,3.75
2023-09-28T23:47:46.664Z,3.97
2023-09-28T23:50:17.465Z,3.95
2023-09-28T23:52:45.720Z,5.15
2023-09-28T23:55:15.912Z,4.20
2023-09-28T23:57:44.156Z,3.75
